createdAt,value
2023-04-25T00:00:21.796Z,17.83
2023-04-25T00:02:49.687Z,18.80
2023-04-25T00:05:17.927Z,17.20
2023-04-25T00:07:45.389Z,19.30
2023-04-25T00:10:12.861Z,18.60
2023-04-25T00:12:40.697Z,18.40
2023-04-25T00:15:42.709Z,17.63
2023-04-25T00:18:10.155Z,18.83
2023-04-25T00:20:37.515Z,19.13
2023-04-25T00:23:04.833Z,18.20
2023-04-25T00:25:32.154Z,18.55
2023-04-25T00:27:59.424Z,19.30
2023-04-25T00:30:26.739Z,18.90
2023-04-25T00:32:54.379Z,17.98
2023-04-25T00:35:22.210Z,19.63
2023-04-25T00:37:49.562Z,20.25
2023-04-25T00:40:16.888Z,19.63
2023-04-25T00:42:44.188Z,20.33
2023-04-25T00:45:15.286Z,20.17
2023-04-25T00:47:43.209Z,21.10
2023-04-25T00:50:11.492Z,20.20
2023-04-25T00:52:44.656Z,19.80
2023-04-25T00:55:13.664Z,20.40
2023-04-25T00:57:41.472Z,19.83
2023-04-25T01:00:10.847Z,21.20
2023-04-25T01:02:38.417Z,20.17
2023-04-25T01:05:06.146Z,20.58
2023-04-25T01:07:33.473Z,20.80
2023-04-25T01:10:01.006Z,20.33
2023-04-25T01:12:28.848Z,20.35
2023-04-25T01:14:56.249Z,20.00
2023-04-25T01:17:23.623Z,19.75
2023-04-25T01:19:51.732Z,20.33
2023-04-25T01:22:19.035Z,20.45
2023-04-25T01:24:47.410Z,19.00
2023-04-25T01:27:14.943Z,19.90
2023-04-25T01:29:42.564Z,21.05
2023-04-25T01:32:10.179Z,20.38
2023-04-25T01:34:37.536Z,19.45
2023-04-25T01:37:04.793Z,19.20
2023-04-25T01:39:32.300Z,19.00
2023-04-25T01:42:01.048Z,19.23
2023-04-25T01:44:28.479Z,17.48
2023-04-25T01:46:55.977Z,18.95
2023-04-25T01:49:23.289Z,19.40
2023-04-25T01:51:51.058Z,19.10
2023-04-25T01:54:19.920Z,18.73
2023-04-25T01:56:52.121Z,18.48
2023-04-25T01:59:22.839Z,19.33
2023-04-25T02:01:50.284Z,19.30
2023-04-25T02:04:24.380Z,18.52
2023-04-25T02:06:52.162Z,19.27
2023-04-25T02:09:19.685Z,19.75
2023-04-25T02:11:52.301Z,19.48
2023-04-25T02:14:25.627Z,19.33
2023-04-25T02:17:01.039Z,18.77
2023-04-25T02:19:28.479Z,18.75
2023-04-25T02:21:56.067Z,18.30
2023-04-25T02:24:23.737Z,18.70
2023-04-25T02:26:51.039Z,19.13
2023-04-25T02:29:18.689Z,18.83
2023-04-25T02:31:46.085Z,18.63
2023-04-25T02:34:13.483Z,17.87
2023-04-25T02:36:40.809Z,17.93
2023-04-25T02:39:08.147Z,18.00
2023-04-25T02:41:35.626Z,17.90
2023-04-25T02:44:02.989Z,18.33
2023-04-25T02:46:39.047Z,16.87
2023-04-25T02:49:07.502Z,16.13
2023-04-25T02:51:35.675Z,16.47
2023-04-25T02:54:03.278Z,15.57
2023-04-25T02:56:33.897Z,15.40
2023-04-25T02:59:01.249Z,15.37
2023-04-25T03:01:29.708Z,16.00
2023-04-25T03:03:57.209Z,15.30
2023-04-25T03:06:25.719Z,15.40
2023-04-25T03:08:53.524Z,15.97
2023-04-25T03:11:21.316Z,15.97
2023-04-25T03:13:49.085Z,16.40
2023-04-25T03:16:17.173Z,15.13
2023-04-25T03:18:44.622Z,15.33
2023-04-25T03:21:11.978Z,15.83
2023-04-25T03:23:39.294Z,14.67
2023-04-25T03:26:08.339Z,15.07
2023-04-25T03:28:35.767Z,14.87
2023-04-25T03:31:03.080Z,15.20
2023-04-25T03:33:31.458Z,15.00
2023-04-25T03:35:58.998Z,14.70
2023-04-25T03:38:26.376Z,14.50
2023-04-25T03:40:54.126Z,15.00
2023-04-25T03:43:26.362Z,15.00
2023-04-25T03:46:02.098Z,14.47
2023-04-25T03:48:29.492Z,13.87
2023-04-25T03:50:56.892Z,14.07
2023-04-25T03:53:30.308Z,13.73
2023-04-25T03:56:16.094Z,14.10
2023-04-25T03:58:45.892Z,13.87
2023-04-25T04:01:14.707Z,13.83
2023-04-25T04:03:43.026Z,14.07
2023-04-25T04:06:11.753Z,13.80
2023-04-25T04:08:45.981Z,13.17
2023-04-25T04:11:13.285Z,13.67
2023-04-25T04:13:40.801Z,13.43
2023-04-25T04:16:08.986Z,13.97
2023-04-25T04:18:36.825Z,13.63
2023-04-25T04:21:05.102Z,14.50
2023-04-25T04:23:37.021Z,13.63
2023-04-25T04:26:06.137Z,13.37
2023-04-25T04:28:55.312Z,13.90
2023-04-25T04:31:58.197Z,13.90
2023-04-25T04:34:26.772Z,13.70
2023-04-25T04:36:54.366Z,13.10
2023-04-25T04:39:22.338Z,13.33
2023-04-25T04:42:02.910Z,13.70
2023-04-25T04:44:40.033Z,14.37
2023-04-25T04:47:26.941Z,13.43
2023-04-25T04:50:14.190Z,13.50
2023-04-25T04:53:00.089Z,13.03
2023-04-25T04:55:47.330Z,13.87
2023-04-25T04:58:32.828Z,13.80
2023-04-25T05:01:09.974Z,12.63
2023-04-25T05:04:02.242Z,13.33
2023-04-25T05:06:46.892Z,13.57
2023-04-25T05:09:45.991Z,14.10
2023-04-25T05:12:45.966Z,14.67
2023-04-25T05:45:24.156Z,15.80
2023-04-25T05:48:34.549Z,15.83
2023-04-25T05:51:38.069Z,15.70
2023-04-25T05:54:21.549Z,15.23
2023-04-25T05:56:48.944Z,16.23
2023-04-25T05:59:16.593Z,16.63
2023-04-25T06:01:44.384Z,16.50
2023-04-25T06:04:12.100Z,16.77
2023-04-25T06:06:39.785Z,17.50
2023-04-25T06:09:07.229Z,17.90
2023-04-25T06:11:36.658Z,16.67
2023-04-25T06:14:04.472Z,17.83
2023-04-25T06:16:36.104Z,17.20
2023-04-25T06:19:03.520Z,16.40
2023-04-25T06:21:30.964Z,17.07
2023-04-25T06:24:01.321Z,17.00
2023-04-25T06:26:31.918Z,17.73
2023-04-25T06:28:59.333Z,18.77
2023-04-25T06:31:27.016Z,17.30
2023-04-25T06:33:56.514Z,18.67
2023-04-25T06:36:27.140Z,17.97
2023-04-25T06:38:58.711Z,17.67
2023-04-25T06:41:27.311Z,18.00
2023-04-25T06:43:58.741Z,13.73
2023-04-25T06:46:31.323Z,13.83
2023-04-25T06:49:00.247Z,13.57
2023-04-25T06:51:30.147Z,13.73
2023-04-25T06:53:57.944Z,12.27
2023-04-25T06:56:32.014Z,13.40
2023-04-25T06:59:05.140Z,14.10
2023-04-25T07:01:41.266Z,13.20
2023-04-25T07:04:27.716Z,14.20
2023-04-25T07:07:18.359Z,14.77
2023-04-25T07:09:53.543Z,14.97
2023-04-25T07:12:22.032Z,15.77
2023-04-25T07:14:49.607Z,15.57
2023-04-25T07:17:17.493Z,16.40
2023-04-25T07:19:45.057Z,15.23
2023-04-25T07:22:12.414Z,17.10
2023-04-25T07:24:42.454Z,18.20
2023-04-25T07:27:13.825Z,15.87
2023-04-25T07:30:11.476Z,15.73
2023-04-25T07:32:40.644Z,14.60
2023-04-25T07:35:08.855Z,13.67
2023-04-25T07:37:36.995Z,15.65
2023-04-25T07:40:11.352Z,14.63
2023-04-25T07:45:33.807Z,14.07
2023-04-25T07:48:01.737Z,13.27
2023-04-25T07:50:31.756Z,12.90
2023-04-25T07:52:59.375Z,12.97
2023-04-25T07:55:32.884Z,11.97
2023-04-25T07:58:06.687Z,11.97
2023-04-25T08:00:34.881Z,12.07
2023-04-25T08:03:22.647Z,12.57
2023-04-25T08:05:51.366Z,11.93
2023-04-25T08:08:20.153Z,12.00
2023-04-25T08:10:49.652Z,11.80
2023-04-25T08:13:18.100Z,12.00
2023-04-25T08:15:46.671Z,13.47
2023-04-25T08:18:16.985Z,15.23
2023-04-25T08:20:46.170Z,16.67
2023-04-25T08:23:15.421Z,19.20
2023-04-25T08:25:52.800Z,18.50
2023-04-25T08:28:23.920Z,18.43
2023-04-25T08:30:51.596Z,16.13
2023-04-25T08:33:20.267Z,14.00
2023-04-25T08:36:08.318Z,14.67
2023-04-25T08:38:35.999Z,14.20
2023-04-25T08:41:06.961Z,11.67
2023-04-25T08:43:34.852Z,10.30
2023-04-25T08:46:02.973Z,10.73
2023-04-25T08:48:48.522Z,10.90
2023-04-25T08:51:29.051Z,10.00
2023-04-25T08:54:02.480Z,11.33
2023-04-25T08:56:43.675Z,12.30
2023-04-25T08:59:11.463Z,12.83
2023-04-25T09:01:39.648Z,13.27
2023-04-25T09:04:07.830Z,13.73
2023-04-25T09:06:35.907Z,13.60
2023-04-25T09:09:06.157Z,12.93
2023-04-25T09:11:34.103Z,13.73
2023-04-25T09:14:26.137Z,13.77
2023-04-25T09:17:03.514Z,11.77
2023-04-25T09:19:52.721Z,11.37
2023-04-25T09:22:32.687Z,11.23
2023-04-25T09:25:03.836Z,11.87
2023-04-25T09:27:31.376Z,13.50
2023-04-25T09:30:07.944Z,14.03
2023-04-25T09:32:58.582Z,14.00
2023-04-25T09:35:30.042Z,15.20
2023-04-25T09:38:01.244Z,15.30
2023-04-25T09:40:48.444Z,15.47
2023-04-25T09:43:25.871Z,15.00
2023-04-25T09:45:56.746Z,16.00
2023-04-25T09:48:26.395Z,15.77
2023-04-25T09:51:16.534Z,15.10
2023-04-25T09:53:47.878Z,16.03
2023-04-25T09:56:23.432Z,16.73
2023-04-25T09:58:52.610Z,16.27
2023-04-25T10:01:21.026Z,16.53
2023-04-25T10:04:03.426Z,16.53
2023-04-25T10:06:44.687Z,17.60
2023-04-25T10:09:13.487Z,18.10
2023-04-25T10:11:41.272Z,17.87
2023-04-25T10:14:08.928Z,18.40
2023-04-25T10:16:37.123Z,18.97
2023-04-25T10:19:05.553Z,19.97
2023-04-25T10:21:36.624Z,19.70
2023-04-25T10:24:12.345Z,20.60
2023-04-25T10:26:40.012Z,21.80
2023-04-25T10:29:07.297Z,21.97
2023-04-25T10:31:35.498Z,23.10
2023-04-25T10:34:04.394Z,22.13
2023-04-25T10:36:33.363Z,22.83
2023-04-25T10:39:07.881Z,22.60
2023-04-25T10:41:49.995Z,21.93
2023-04-25T10:44:17.512Z,22.97
2023-04-25T10:46:49.485Z,22.33
2023-04-25T10:49:35.798Z,22.27
2023-04-25T10:52:18.510Z,22.13
2023-04-25T10:54:56.499Z,22.43
2023-04-25T10:57:30.629Z,21.63
2023-04-25T11:00:02.073Z,21.97
2023-04-25T11:02:31.001Z,21.93
2023-04-25T11:05:01.175Z,23.13
2023-04-25T11:07:29.580Z,22.37
2023-04-25T11:09:59.099Z,22.57
2023-04-25T11:12:31.461Z,21.87
2023-04-25T11:15:03.812Z,22.30
2023-04-25T11:17:31.447Z,21.97
2023-04-25T11:19:59.311Z,21.27
2023-04-25T11:22:28.361Z,21.00
2023-04-25T11:24:56.116Z,20.57
2023-04-25T11:27:25.969Z,22.07
2023-04-25T11:29:53.424Z,21.97
2023-04-25T11:32:21.521Z,20.43
2023-04-25T11:37:38.104Z,19.10
2023-04-25T11:40:07.614Z,18.43
2023-04-25T11:42:38.760Z,18.13
2023-04-25T11:45:09.026Z,19.50
2023-04-25T11:47:37.222Z,18.07
2023-04-25T11:50:06.207Z,18.50
2023-04-25T11:52:43.968Z,18.37
2023-04-25T11:55:36.462Z,18.27
2023-04-25T11:58:05.329Z,17.03
2023-04-25T12:00:33.152Z,18.60
2023-04-25T12:03:03.157Z,19.80
2023-04-25T12:05:34.998Z,15.70
2023-04-25T12:08:12.929Z,16.90
2023-04-25T12:10:44.356Z,17.70
2023-04-25T12:13:23.854Z,14.90
2023-04-25T12:15:51.533Z,15.60
2023-04-25T12:18:22.776Z,20.73
2023-04-25T12:20:50.168Z,14.60
2023-04-25T12:23:17.650Z,15.50
2023-04-25T12:25:48.243Z,13.80
2023-04-25T12:28:31.837Z,14.50
2023-04-25T12:31:07.307Z,12.20
2023-04-25T12:33:36.609Z,16.47
2023-04-25T12:36:12.718Z,12.10
2023-04-25T12:38:41.968Z,11.60
2023-04-25T12:41:11.393Z,11.10
2023-04-25T12:43:39.189Z,11.17
2023-04-25T12:46:09.605Z,12.07
2023-04-25T12:48:37.273Z,13.50
2023-04-25T12:51:07.150Z,11.57
2023-04-25T12:53:37.638Z,10.57
2023-04-25T12:56:05.199Z,10.90
2023-04-25T12:58:34.391Z,10.40
2023-04-25T13:01:01.878Z,10.73
2023-04-25T13:03:29.730Z,10.53
2023-04-25T13:05:57.248Z,10.70
2023-04-25T13:08:25.362Z,10.97
2023-04-25T13:10:56.049Z,10.40
2023-04-25T13:13:23.493Z,10.13
2023-04-25T13:15:50.910Z,10.83
2023-04-25T13:18:18.385Z,11.03
2023-04-25T13:20:47.210Z,10.70
2023-04-25T13:23:14.596Z,10.57
2023-04-25T13:25:42.179Z,10.20
2023-04-25T13:28:09.693Z,10.30
2023-04-25T13:30:37.346Z,10.13
2023-04-25T13:33:04.879Z,9.53
2023-04-25T13:35:32.747Z,9.53
2023-04-25T13:38:00.167Z,8.93
2023-04-25T13:40:28.085Z,10.00
2023-04-25T13:42:59.709Z,9.97
2023-04-25T13:45:27.864Z,9.70
2023-04-25T13:47:55.249Z,9.67
2023-04-25T13:50:25.466Z,9.33
2023-04-25T13:52:52.848Z,9.63
2023-04-25T13:55:20.280Z,9.30
2023-04-25T13:57:47.801Z,9.53
2023-04-25T14:00:15.908Z,9.10
2023-04-25T14:02:43.395Z,8.80
2023-04-25T14:05:12.419Z,9.83
2023-04-25T14:07:39.896Z,8.10
2023-04-25T14:10:07.989Z,8.40
2023-04-25T14:12:35.469Z,7.80
2023-04-25T14:15:18.392Z,8.90
2023-04-25T14:17:47.006Z,8.30
2023-04-25T14:20:14.829Z,8.37
2023-04-25T14:22:44.757Z,8.10
2023-04-25T14:25:12.193Z,8.37
2023-04-25T14:27:39.496Z,8.13
2023-04-25T14:30:16.258Z,8.30
2023-04-25T14:32:43.790Z,8.10
2023-04-25T14:35:14.987Z,8.37
2023-04-25T14:40:30.115Z,8.97
2023-04-25T14:42:57.469Z,9.57
2023-04-25T14:45:26.875Z,9.68
2023-04-25T14:47:54.321Z,9.00
2023-04-25T14:50:21.823Z,9.40
2023-04-25T14:52:49.171Z,9.17
2023-04-25T14:55:16.650Z,9.97
2023-04-25T14:57:43.968Z,9.63
2023-04-25T15:00:13.292Z,9.33
2023-04-25T15:02:40.869Z,9.30
2023-04-25T15:05:09.657Z,8.97
2023-04-25T15:07:37.051Z,9.40
2023-04-25T15:10:04.588Z,10.27
2023-04-25T15:12:35.292Z,9.70
2023-04-25T15:15:03.156Z,10.20
2023-04-25T15:17:35.602Z,10.23
2023-04-25T15:20:03.037Z,10.57
2023-04-25T15:22:31.587Z,10.80
2023-04-25T15:25:00.248Z,10.60
2023-04-25T15:27:28.501Z,11.63
2023-04-25T15:29:55.987Z,11.20
2023-04-25T15:32:24.695Z,11.07
2023-04-25T15:34:52.347Z,11.10
2023-04-25T15:37:20.054Z,11.00
2023-04-25T15:39:47.688Z,10.50
2023-04-25T15:42:15.056Z,10.70
2023-04-25T15:44:43.215Z,10.77
2023-04-25T15:47:10.961Z,11.13
2023-04-25T15:49:39.581Z,11.07
2023-04-25T15:52:11.600Z,11.53
2023-04-25T15:54:42.256Z,10.47
2023-04-25T15:57:13.283Z,10.37
2023-04-25T15:59:40.659Z,9.03
2023-04-25T16:02:08.829Z,10.17
2023-04-25T16:04:38.340Z,10.50
2023-04-25T16:07:08.377Z,10.63
2023-04-25T16:09:38.252Z,9.43
2023-04-25T16:12:05.930Z,10.53
2023-04-25T16:14:34.022Z,9.77
2023-04-25T16:17:02.256Z,10.03
2023-04-25T16:19:30.490Z,9.30
2023-04-25T16:21:58.191Z,9.77
2023-04-25T16:24:25.531Z,9.80
2023-04-25T16:26:53.908Z,9.40
2023-04-25T16:29:21.434Z,9.80
2023-04-25T16:31:49.855Z,9.67
2023-04-25T16:34:17.639Z,9.33
2023-04-25T16:36:44.990Z,9.50
2023-04-25T16:39:13.538Z,9.20
2023-04-25T16:41:41.485Z,9.53
2023-04-25T16:44:09.215Z,8.97
2023-04-25T16:46:36.729Z,8.40
2023-04-25T16:49:07.777Z,9.03
2023-04-25T16:51:36.665Z,9.00
2023-04-25T16:54:04.144Z,9.50
2023-04-25T16:56:31.570Z,8.97
2023-04-25T16:58:59.029Z,9.80
2023-04-25T17:01:28.661Z,9.57
2023-04-25T17:03:58.725Z,9.67
2023-04-25T17:06:27.516Z,9.93
2023-04-25T17:08:55.808Z,10.20
2023-04-25T17:11:23.252Z,10.70
2023-04-25T17:13:51.126Z,10.03
2023-04-25T17:20:08.498Z,10.90
2023-04-25T17:22:38.731Z,9.87
2023-04-25T17:25:08.656Z,9.80
2023-04-25T17:27:36.733Z,10.43
2023-04-25T17:30:05.255Z,10.10
2023-04-25T17:32:32.691Z,10.63
2023-04-25T17:35:00.362Z,10.67
2023-04-25T17:37:28.635Z,10.27
2023-04-25T17:39:58.888Z,10.77
2023-04-25T17:42:26.299Z,10.20
2023-04-25T17:44:55.575Z,10.53
2023-04-25T17:47:23.911Z,10.63
2023-04-25T17:49:51.609Z,10.30
2023-04-25T17:52:21.642Z,10.23
2023-04-25T17:54:49.783Z,10.90
2023-04-25T17:57:17.243Z,11.57
2023-04-25T17:59:44.618Z,10.73
2023-04-25T18:02:12.019Z,11.17
2023-04-25T18:04:39.538Z,10.07
2023-04-25T18:07:07.518Z,10.40
2023-04-25T18:09:35.225Z,11.10
2023-04-25T18:12:03.712Z,11.20
2023-04-25T18:14:31.721Z,10.77
2023-04-25T18:17:00.078Z,10.73
2023-04-25T18:19:27.443Z,10.77
2023-04-25T18:21:56.140Z,11.40
2023-04-25T18:24:26.325Z,11.80
2023-04-25T18:26:55.402Z,10.97
2023-04-25T18:31:56.810Z,10.90
2023-04-25T18:34:26.711Z,11.37
2023-04-25T18:36:56.345Z,11.83
2023-04-25T18:39:24.555Z,12.17
2023-04-25T18:41:58.693Z,10.97
2023-04-25T18:44:28.559Z,12.13
2023-04-25T18:46:55.844Z,12.63
2023-04-25T18:49:23.319Z,11.87
2023-04-25T18:51:51.254Z,12.27
2023-04-25T18:54:18.557Z,12.37
2023-04-25T18:56:46.829Z,13.10
2023-04-25T18:59:15.570Z,12.97
2023-04-25T19:01:43.521Z,13.20
2023-04-25T19:04:11.710Z,13.53
2023-04-25T19:06:39.174Z,13.37
2023-04-25T19:09:07.717Z,13.70
2023-04-25T19:11:35.129Z,13.50
2023-04-25T19:14:02.814Z,12.87
2023-04-25T19:16:30.648Z,13.27
2023-04-25T19:18:58.084Z,12.67
2023-04-25T19:21:25.688Z,13.70
2023-04-25T19:23:54.375Z,13.37
2023-04-25T19:26:22.458Z,14.20
2023-04-25T19:29:03.833Z,13.83
2023-04-25T19:31:31.467Z,12.97
2023-04-25T19:33:59.284Z,13.23
2023-04-25T19:36:27.874Z,12.97
2023-04-25T19:39:00.897Z,13.73
2023-04-25T19:41:28.755Z,14.20
2023-04-25T19:43:56.106Z,14.57
2023-04-25T19:46:23.752Z,14.37
2023-04-25T19:48:52.013Z,14.33
2023-04-25T19:51:19.353Z,13.57
2023-04-25T19:53:46.751Z,14.43
2023-04-25T19:56:14.137Z,14.37
2023-04-25T19:58:41.586Z,14.00
2023-04-25T20:01:09.028Z,15.27
2023-04-25T20:03:36.548Z,14.30
2023-04-25T20:06:04.154Z,15.43
2023-04-25T20:08:31.478Z,14.37
2023-04-25T20:10:58.802Z,17.15
2023-04-25T20:13:26.120Z,16.67
2023-04-25T20:15:53.469Z,15.67
2023-04-25T20:18:21.577Z,19.53
2023-04-25T20:20:48.942Z,16.23
2023-04-25T20:23:16.247Z,15.77
2023-04-25T20:25:43.658Z,15.43
2023-04-25T20:28:11.128Z,15.20
2023-04-25T20:30:39.270Z,15.40
2023-04-25T20:33:07.551Z,15.63
2023-04-25T20:35:35.102Z,14.87
2023-04-25T20:38:02.592Z,15.23
2023-04-25T20:40:29.897Z,14.23
2023-04-25T20:42:57.329Z,13.90
2023-04-25T20:45:29.943Z,14.03
2023-04-25T20:47:57.539Z,14.07
2023-04-25T20:50:25.343Z,13.63
2023-04-25T20:52:53.350Z,13.60
2023-04-25T20:55:20.712Z,14.50
2023-04-25T20:57:48.084Z,13.37
2023-04-25T21:00:20.946Z,13.23
2023-04-25T21:02:48.476Z,13.17
2023-04-25T21:05:16.073Z,12.60
2023-04-25T21:07:43.593Z,12.37
2023-04-25T21:10:11.049Z,12.70
2023-04-25T21:12:38.403Z,12.20
2023-04-25T21:15:05.904Z,11.87
2023-04-25T21:17:33.211Z,12.57
2023-04-25T21:20:00.621Z,11.20
2023-04-25T21:22:28.024Z,12.27
2023-04-25T21:24:57.204Z,12.40
2023-04-25T21:27:24.547Z,12.17
2023-04-25T21:29:51.826Z,13.73
2023-04-25T21:32:21.894Z,13.50
2023-04-25T21:34:49.248Z,14.33
2023-04-25T21:37:16.542Z,14.90
2023-04-25T21:39:43.824Z,14.77
2023-04-25T21:42:13.247Z,17.37
2023-04-25T21:44:40.541Z,18.37
2023-04-25T21:47:08.021Z,18.03
2023-04-25T21:49:35.414Z,19.00
2023-04-25T21:52:03.051Z,19.80
2023-04-25T21:54:30.675Z,18.30
2023-04-25T21:56:58.024Z,19.80
2023-04-25T21:59:25.647Z,19.43
2023-04-25T22:01:53.116Z,19.50
2023-04-25T22:04:20.798Z,19.57
2023-04-25T22:06:48.389Z,18.77
2023-04-25T22:09:16.439Z,19.00
2023-04-25T22:11:43.769Z,19.13
2023-04-25T22:14:11.791Z,19.73
2023-04-25T22:16:40.275Z,18.77
2023-04-25T22:19:09.721Z,17.53
2023-04-25T22:21:37.023Z,16.03
2023-04-25T22:24:06.340Z,14.23
2023-04-25T22:26:34.453Z,13.30
2023-04-25T22:29:02.667Z,12.40
2023-04-25T22:31:30.450Z,12.73
2023-04-25T22:33:58.069Z,10.10
2023-04-25T22:36:25.383Z,9.57
2023-04-25T22:38:53.406Z,9.43
2023-04-25T22:41:21.616Z,9.20
2023-04-25T22:43:48.897Z,9.20
2023-04-25T22:46:17.737Z,8.77
2023-04-25T22:48:46.122Z,8.87
2023-04-25T22:51:14.151Z,8.80
2023-04-25T22:53:42.666Z,9.30
2023-04-25T22:56:11.809Z,8.30
2023-04-25T22:58:43.462Z,8.50
2023-04-25T23:01:12.369Z,7.53
2023-04-25T23:03:41.140Z,6.80
2023-04-25T23:06:08.496Z,8.23
2023-04-25T23:08:35.857Z,7.47
2023-04-25T23:11:07.651Z,7.97
2023-04-25T23:13:37.924Z,7.87
2023-04-25T23:16:06.465Z,8.07
2023-04-25T23:18:33.944Z,8.83
2023-04-25T23:21:02.071Z,8.30
2023-04-25T23:23:29.818Z,8.53
2023-04-25T23:25:57.816Z,8.90
2023-04-25T23:28:25.164Z,9.30
2023-04-25T23:30:52.520Z,9.27
2023-04-25T23:33:20.081Z,9.97
2023-04-25T23:35:48.370Z,8.90
2023-04-25T23:38:16.557Z,8.90
2023-04-25T23:40:43.930Z,8.63
2023-04-25T23:43:11.222Z,8.90
2023-04-25T23:45:38.495Z,8.60
2023-04-25T23:48:06.083Z,9.23
2023-04-25T23:50:33.391Z,8.70
2023-04-25T23:53:00.881Z,8.30
2023-04-25T23:55:28.323Z,7.83
2023-04-25T23:57:55.638Z,7.40
